sensor_id;sensor_type;location;lat;lon;timestamp;pressure;altitude;pressure_sealevel;temperature;humidity
71642;BME280;60657;50.122;14.468;2023-01-30T00:01:17;98555.32222939096;;;-1.0357061112382695;74.04119935912108
71642;BME280;60657;50.122;14.468;2023-01-30T00:04:23;98538.39621409532;;;-0.966277561608301;73.82185091935607
71642;BME280;60657;50.122;14.468;2023-01-30T00:07:27;98536.58752882593;;;-1.0704203860532573;74.07743953612574
71642;BME280;60657;50.122;14.468;2023-01-30T00:10:31;98523.05029078052;;;-1.0624093995574881;74.31586175326161
71642;BME280;60657;50.122;14.468;2023-01-30T00:13:35;98526.26708644985;;;-1.1211566338597692;74.50278477149615
71642;BME280;60657;50.122;14.468;2023-01-30T00:16:41;98528.8473285696;;;-1.1532005798428315;74.55809872587167
71642;BME280;60657;50.122;14.468;2023-01-30T00:19:45;98528.27695194619;;;-1.0143434805828946;74.35591668574044
71642;BME280;60657;50.122;14.468;2023-01-30T00:22:49;98526.66821075375;;;-1.0410467689021132;74.4207675288014
71642;BME280;60657;50.122;14.468;2023-01-30T00:25:52;98522.17284931938;;;-0.8941786831464071;74.12512397955291
71642;BME280;60657;50.122;14.468;2023-01-30T00:28:59;98512.778929173;;;-0.8247501335164387;73.86953536278324
71642;BME280;60657;50.122;14.468;2023-01-30T00:32:03;98500.73795164953;;;-0.7686732280460831;73.72266727702754
71642;BME280;60657;50.122;14.468;2023-01-30T00:35:07;98497.19518781628;;;-0.6858930342565017;73.44419012741284
71642;BME280;60657;50.122;14.468;2023-01-30T00:38:11;98500.48024232633;;;-0.7232776379034078;73.55481803616388
71642;BME280;60657;50.122;14.468;2023-01-30T00:41:15;98484.05543437578;;;-0.6431677729457519;73.52811474784467
71642;BME280;60657;50.122;14.468;2023-01-30T00:44:19;98484.82877451465;;;-0.651178759441521;73.6692607003891
71642;BME280;60657;50.122;14.468;2023-01-30T00:47:22;98486.82133968995;;;-0.563057907988096;73.32021057450217
71642;BME280;60657;50.122;14.468;2023-01-30T00:50:26;98484.24643237847;;;-0.6244754711223024;73.44419012741284
71642;BME280;60657;50.122;14.468;2023-01-30T00:53:30;98466.77702558436;;;-0.5256733043411899;73.27061875333791
71642;BME280;60657;50.122;14.468;2023-01-30T00:56:34;98461.16817060164;;;-0.48561837186236545;73.13138017853056
71642;BME280;60657;50.122;14.468;2023-01-30T00:59:37;98452.98621459467;;;-0.5657282368200214;73.17906462195774
71642;BME280;60657;50.122;14.468;2023-01-30T01:02:41;98452.3352481693;;;-0.5016403448538966;73.15426871137561
71642;BME280;60657;50.122;14.468;2023-01-30T01:05:45;98454.22354131355;;;-0.651178759441521;73.80659189745937
71642;BME280;60657;50.122;14.468;2023-01-30T01:08:49;98454.93504264801;;;-0.6271457999542207;73.77035172045471
71642;BME280;60657;50.122;14.468;2023-01-30T01:11:52;98452.48714823592;;;-0.6832227054245834;73.8332951857786
71642;BME280;60657;50.122;14.468;2023-01-30T01:14:56;98448.17721641045;;;-0.6885633630884271;73.61776150148775
71642;BME280;60657;50.122;14.468;2023-01-30T01:18:00;98454.28611171711;;;-0.6084534981307712;73.63874265659571
71642;BME280;60657;50.122;14.468;2023-01-30T01:21:04;98446.94197081694;;;-0.6244754711223024;73.70168612191958
71642;BME280;60657;50.122;14.468;2023-01-30T01:24:08;98449.13971487193;;;-0.7206073090714895;73.60059510185397
71642;BME280;60657;50.122;14.468;2023-01-30T01:27:20;98441.79628524935;;;-0.6485084306095956;73.3888761730373
71642;BME280;60657;50.122;14.468;2023-01-30T01:30:23;98444.76682989854;;;-0.7232776379034078;73.47661554894331
71642;BME280;60657;50.122;14.468;2023-01-30T01:33:27;98440.45635321907;;;-0.7686732280460831;73.76272220950636
71642;BME280;60657;50.122;14.468;2023-01-30T01:36:31;98439.74579568725;;;-0.6965743495841892;73.50141145952544
71642;BME280;60657;50.122;14.468;2023-01-30T01:39:35;98440.51952913325;;;-0.7446402685587827;73.42511635004196
71642;BME280;60657;50.122;14.468;2023-01-30T01:42:38;98441.35636940524;;;-0.7446402685587827;73.56054016937514
71642;BME280;60657;50.122;14.468;2023-01-30T01:45:43;98441.60823485446;;;-0.6778820477607397;73.33546959639887
71642;BME280;60657;50.122;14.468;2023-01-30T01:48:52;98451.65028361249;;;-0.5951018539711583;73.12184328984512
71642;BME280;60657;50.122;14.468;2023-01-30T01:52:02;98447.4032309107;;;-0.6672007324330522;73.42893110551614
71642;BME280;60657;50.122;14.468;2023-01-30T01:55:11;98440.49672253995;;;-0.5203326466773461;73.04936293583582
71642;BME280;60657;50.122;14.468;2023-01-30T01:58:18;98434.7017772993;;;-0.6031128404669275;73.26298924238957
71642;BME280;60657;50.122;14.468;2023-01-30T02:01:29;98442.94483958726;;;-0.5870908674753963;73.40794995040818
71642;BME280;60657;50.122;14.468;2023-01-30T02:04:34;98437.98653325967;;;-0.5497062638284902;73.44419012741284
71642;BME280;60657;50.122;14.468;2023-01-30T02:07:43;98429.4949657544;;;-0.6618600747692085;73.72457465476462
71642;BME280;60657;50.122;14.468;2023-01-30T02:10:53;98418.9295012602;;;-0.5951018539711583;73.64637216754406
71642;BME280;60657;50.122;14.468;2023-01-30T02:14:04;98399.28580254487;;;-0.6298161287861461;73.71503776607919
71642;BME280;60657;50.122;14.468;2023-01-30T02:17:10;98399.16231977145;;;-0.6939040207522709;74.05264362554361
71642;BME280;60657;50.122;14.468;2023-01-30T02:20:17;98400.83526086963;;;-0.672541390096896;73.74555580987258
71642;BME280;60657;50.122;14.468;2023-01-30T02:23:37;98385.43601254195;;;-0.6832227054245834;74.083161669337
71642;BME280;60657;50.122;14.468;2023-01-30T02:27:07;98372.84687262769;;;-0.4962996871900529;73.43083848325323
71642;BME280;60657;50.122;14.468;2023-01-30T02:30:36;98360.78609698961;;;-0.48294804303044003;73.36980239566644
71642;BME280;60657;50.122;14.468;2023-01-30T02:33:56;98341.14034239735;;;-0.4562447547112214;73.23247119859617
71642;BME280;60657;50.122;14.468;2023-01-30T02:37:22;98337.19824757669;;;-0.41084916456855325;73.11421377889677
71642;BME280;60657;50.122;14.468;2023-01-30T02:40:37;98325.19134052622;;;-0.35477225909819055;73.10467689021134
71642;BME280;60657;50.122;14.468;2023-01-30T02:43:57;98325.19134052622;;;-0.3868162050812529;72.94827191577019
71642;BME280;60657;50.122;14.468;2023-01-30T02:47:08;98328.82582143284;;;-0.24795910582131597;72.60494392309452
71642;BME280;60657;50.122;14.468;2023-01-30T02:50:19;98305.77665412596;;;-0.3681239032578034;72.79758907454033
71642;BME280;60657;50.122;14.468;2023-01-30T02:53:30;98318.91409482194;;;-0.28000305180437834;72.59159227893493
71642;BME280;60657;50.122;14.468;2023-01-30T02:56:44;98311.50970722952;;;-0.31471732661936613;72.56107423514153
71642;BME280;60657;50.122;14.468;2023-01-30T02:59:51;98295.49052290073;;;-0.30136568245975326;72.3588921950103
71642;BME280;60657;50.122;14.468;2023-01-30T03:03:07;98284.97263509734;;;-0.20790417334249156;72.39322499427787
71642;BME280;60657;50.122;14.468;2023-01-30T03:06:32;98281.74486596088;;;-0.2880140383001475;72.12809948882277
71642;BME280;60657;50.122;14.468;2023-01-30T03:09:48;98264.10132336778;;;-0.11177233539330445;71.82482642862593
71642;BME280;60657;50.122;14.468;2023-01-30T03:13:04;98261.9262154231;;;-0.33607995727474105;71.89730678263523
71642;BME280;60657;50.122;14.468;2023-01-30T03:16:19;98260.36876449586;;;-0.24795910582131597;71.92782482642862
71642;BME280;60657;50.122;14.468;2023-01-30T03:19:29;98256.58581154792;;;-0.1758602273594292;71.63027389944304
71642;BME280;60657;50.122;14.468;2023-01-30T03:22:33;98265.54798613746;;;-0.18654154268711665;71.67605096513313
71642;BME280;60657;50.122;14.468;2023-01-30T03:25:37;98276.57227251037;;;-0.0476844434271797;71.36324101625085
71642;BME280;60657;50.122;14.468;2023-01-30T03:28:45;98269.0561298804;;;-0.159838254367898;71.45670252536813
71642;BME280;60657;50.122;14.468;2023-01-30T03:31:53;98296.78033163049;;;-0.09575036240177326;71.41855497062639
71642;BME280;60657;50.122;14.468;2023-01-30T03:34:57;98302.01752983831;;;-0.045014114595254284;71.21065079728389
71642;BME280;60657;50.122;14.468;2023-01-30T03:38:01;98297.11773356386;;;-0.007629510948348184;71.35179674982834
71642;BME280;60657;50.122;14.468;2023-01-30T03:41:05;98288.37573306017;;;0.032425421530483334;71.07522697795072
71642;BME280;60657;50.122;14.468;2023-01-30T03:44:09;98289.1554656562;;;0.01373311970702673;71.05806057831693
71642;BME280;60657;50.122;14.468;2023-01-30T03:47:13;98287.54054641371;;;-0.002288853284504455;71.10955977721828
71642;BME280;60657;50.122;14.468;2023-01-30T03:50:17;98287.42951836613;;;-0.007629510948348184;71.25261310749981
71642;BME280;60657;50.122;14.468;2023-01-30T03:53:21;98281.69435639543;;;-0.031662470435648515;70.99320973525597
71642;BME280;60657;50.122;14.468;2023-01-30T03:56:25;98258.80964736168;;;-0.007629510948348184;71.06759746700237
71642;BME280;60657;50.122;14.468;2023-01-30T03:59:29;98240.09944999705;;;-0.0102998397802736;71.07331960021362
71642;BME280;60657;50.122;14.468;2023-01-30T04:02:33;98245.50570605685;;;-0.18921187151903496;71.12672617685206
71642;BME280;60657;50.122;14.468;2023-01-30T04:05:36;98247.2304612251;;;-0.031662470435648515;70.81963836118105
71642;BME280;60657;50.122;14.468;2023-01-30T04:08:40;98236.54182888943;;;-0.12779430838483563;71.05233844510568
71642;BME280;60657;50.122;14.468;2023-01-30T04:11:44;98208.70659350029;;;-0.14915693904021055;71.2545204852369
71642;BME280;60657;50.122;14.468;2023-01-30T04:14:48;98196.29653172764;;;-0.12779430838483563;71.28122377355612
71642;BME280;60657;50.122;14.468;2023-01-30T04:17:52;98190.45496255053;;;-0.14648661020828513;71.38422217135881
71642;BME280;60657;50.122;14.468;2023-01-30T04:20:57;98193.38947474858;;;-0.026321812771804787;71.00656137941559
71642;BME280;60657;50.122;14.468;2023-01-30T04:24:00;98186.41176638458;;;0.07515068284123316;70.61745632104981
71642;BME280;60657;50.122;14.468;2023-01-30T04:27:04;98168.16323497302;;;-0.14915693904021055;71.29076066224155
71642;BME280;60657;50.122;14.468;2023-01-30T04:30:09;98141.1103381866;;;0.0003814755474209619;71.29457541771572
71642;BME280;60657;50.122;14.468;2023-01-30T04:33:13;98140.4329854495;;;-0.004959182116429872;71.30601968413825
71642;BME280;60657;50.122;14.468;2023-01-30T04:36:17;98126.82531757114;;;0.09384298466468266;71.20111390859846
71642;BME280;60657;50.122;14.468;2023-01-30T04:39:21;98130.58157369647;;;-0.1037613488975353;71.55016403448539
71642;BME280;60657;50.122;14.468;2023-01-30T04:42:25;98136.57168184305;;;-0.22392614633402275;72.23491264209964
71642;BME280;60657;50.122;14.468;2023-01-30T04:45:29;98123.02439866116;;;-0.08773937590600411;72.11284046692607
71642;BME280;60657;50.122;14.468;2023-01-30T04:48:32;98119.58444902932;;;-0.10910200656137903;72.35126268406195
71642;BME280;60657;50.122;14.468;2023-01-30T04:51:36;98120.62682459975;;;-0.13046463721675394;72.43518730449378
71642;BME280;60657;50.122;14.468;2023-01-30T04:54:40;98136.15863127845;;;-0.11177233539330445;72.31883726253147
71642;BME280;60657;50.122;14.468;2023-01-30T04:57:44;98116.08847550569;;;0.024414435034714188;72.3588921950103
71642;BME280;60657;50.122;14.468;2023-01-30T05:00:48;98112.27687832064;;;0.11787594415198299;72.11856260013734
71642;BME280;60657;50.122;14.468;2023-01-30T05:03:52;98116.24193291237;;;0.09384298466468266;72.5210193026627
71642;BME280;60657;50.122;14.468;2023-01-30T05:06:56;98115.40818844929;;;0.08049134050507689;72.91584649423972
71642;BME280;60657;50.122;14.468;2023-01-30T05:10:06;98125.515126753;;;0.13389791714351418;72.87960631723506
71642;BME280;60657;50.122;14.468;2023-01-30T05:13:11;98127.28406402175;;;0.1926451514457952;72.91393911650263
71642;BME280;60657;50.122;14.468;2023-01-30T05:16:15;98129.88639658468;;;0.24071107042038875;73.140917067216
71642;BME280;60657;50.122;14.468;2023-01-30T05:19:20;98114.54717461366;;;0.33417257953765045;73.19623102159152
71642;BME280;60657;50.122;14.468;2023-01-30T05:22:24;98121.80040587313;;;0.25673304341191994;73.51667048142214
71642;BME280;60657;50.122;14.468;2023-01-30T05:25:28;98117.88165387113;;;0.2887769893949823;73.45372701609827
71642;BME280;60657;50.122;14.468;2023-01-30T05:28:32;98113.42250357421;;;0.46501869230182535;73.07606622415503
71642;BME280;60657;50.122;14.468;2023-01-30T05:31:37;98093.80911986878;;;0.44899671931029417;73.316395819028
71642;BME280;60657;50.122;14.468;2023-01-30T05:34:43;98090.42724138658;;;0.432974746318763;73.63111314564736
71642;BME280;60657;50.122;14.468;2023-01-30T05:37:48;98074.88489661398;;;0.3395132372014942;73.5967803463798
71642;BME280;60657;50.122;14.468;2023-01-30T05:40:56;98076.59947624935;;;0.44632639047836875;73.7589074540322
71642;BME280;60657;50.122;14.468;2023-01-30T05:44:01;98069.34036230846;;;0.5130846112764189;73.71503776607919
71642;BME280;60657;50.122;14.468;2023-01-30T05:47:05;98076.358047845;;;0.40894178683146265;74.24338139925231
71642;BME280;60657;50.122;14.468;2023-01-30T05:50:10;98051.84514522905;;;0.3662165255207128;74.48561837186236
71642;BME280;60657;50.122;14.468;2023-01-30T05:53:14;98051.89301099844;;;0.3982604715037752;74.63057907988097
71642;BME280;60657;50.122;14.468;2023-01-30T05:56:18;98043.01565713053;;;0.44365606164645044;74.66681925688563
71642;BME280;60657;50.122;14.468;2023-01-30T05:59:22;98048.98823517527;;;0.4783703364614311;74.34637979705501
71642;BME280;60657;50.122;14.468;2023-01-30T06:02:26;98042.32461869354;;;0.4596780346379816;74.69161516746776
71642;BME280;60657;50.122;14.468;2023-01-30T06:05:30;98033.39791178267;;;0.4356450751506813;74.7011520561532
71642;BME280;60657;50.122;14.468;2023-01-30T06:08:34;98032.79840018091;;;0.5184252689402626;74.8041504539559
71642;BME280;60657;50.122;14.468;2023-01-30T06:11:38;98024.6560321655;;;0.550469214923325;75.07690547035935
71642;BME280;60657;50.122;14.468;2023-01-30T06:14:42;98011.51747954822;;;0.5344472419317938;75.41641870756085
71642;BME280;60657;50.122;14.468;2023-01-30T06:17:46;98005.96404247619;;;0.5664911879148562;75.36682688639658
71642;BME280;60657;50.122;14.468;2023-01-30T06:20:50;97991.78828327984;;;0.814831769283586;74.73929961089495
71642;BME280;60657;50.122;14.468;2023-01-30T06:23:55;97999.3678113015;;;0.8869306477454799;74.60959792477303
71642;BME280;60657;50.122;14.468;2023-01-30T06:26:59;97986.313768834;;;0.8602273594262613;74.7450217441062
71642;BME280;60657;50.122;14.468;2023-01-30T06:30:03;97983.6416448752;;;0.7534142061493867;74.76600289921416
71642;BME280;60657;50.122;14.468;2023-01-30T06:33:08;97996.69388964224;;;0.7213702601663243;74.7888914320592
71642;BME280;60657;50.122;14.468;2023-01-30T06:36:13;98000.15613370763;;;0.8709086747539487;74.68207827878233
71642;BME280;60657;50.122;14.468;2023-01-30T06:39:17;97988.67930836025;;;0.7881284809643674;74.94148165102617
71642;BME280;60657;50.122;14.468;2023-01-30T06:42:21;97979.65581901802;;;0.7774471656366799;74.9796292057679
71642;BME280;60657;50.122;14.468;2023-01-30T06:45:25;97973.43183878246;;;0.9296559090562297;74.59433890287633
71642;BME280;60657;50.122;14.468;2023-01-30T06:48:31;97986.74623347653;;;1.0391393911650297;74.33875028610666
71642;BME280;60657;50.122;14.468;2023-01-30T06:51:35;97976.76033865476;;;0.9857328145265853;74.60006103608758
71642;BME280;60657;50.122;14.468;2023-01-30T06:54:39;97978.42461329437;;;1.012436102845811;74.46082246128023
71642;BME280;60657;50.122;14.468;2023-01-30T06:57:43;97981.34590673738;;;1.1379415579461352;74.1403830014496
71642;BME280;60657;50.122;14.468;2023-01-30T07:00:48;97982.38731035647;;;1.2420843823910914;74.00686655985352
71642;BME280;60657;50.122;14.468;2023-01-30T07:03:53;97971.11175976491;;;1.239414053559166;73.99732967116807
71642;BME280;60657;50.122;14.468;2023-01-30T07:06:57;97971.69604148548;;;1.172655832761123;74.50659952697032
71642;BME280;60657;50.122;14.468;2023-01-30T07:10:01;97971.19366650378;;;1.2874799725337596;74.18997482261388
71642;BME280;60657;50.122;14.468;2023-01-30T07:13:09;97955.59242614612;;;1.2287327382314785;74.40550850690471
71642;BME280;60657;50.122;14.468;2023-01-30T07:16:14;97939.36122069837;;;1.319523918516822;74.42839703974975
71642;BME280;60657;50.122;14.468;2023-01-30T07:19:17;97933.73898107887;;;1.3622491798275718;74.66681925688563
71642;BME280;60657;50.122;14.468;2023-01-30T07:22:21;97951.75616263392;;;1.386282139314872;75.08834973678188
71642;BME280;60657;50.122;14.468;2023-01-30T07:25:26;97931.51967867622;;;1.3889524681467904;75.12649729152362
71642;BME280;60657;50.122;14.468;2023-01-30T07:28:32;97928.31063747173;;;1.4690623331044463;75.29625391012436
71642;BME280;60657;50.122;14.468;2023-01-30T07:31:36;97921.0981159451;;;1.51712825207904;75.21042191195545
71642;BME280;60657;50.122;14.468;2023-01-30T07:34:40;97912.33355603831;;;1.6773479819943518;75.28671702143893
71642;BME280;60657;50.122;14.468;2023-01-30T07:37:44;97900.23863759513;;;1.7254139009689453;75.025406271458
71642;BME280;60657;50.122;14.468;2023-01-30T07:40:49;97908.62322736737;;;1.8188754100862141;74.64011596856642
71642;BME280;60657;50.122;14.468;2023-01-30T07:43:53;97888.9697624483;;;1.8455786984054328;74.62485694666972
71642;BME280;60657;50.122;14.468;2023-01-30T07:46:57;97899.88041665038;;;1.9230182345311633;74.37880521858548
71642;BME280;60657;50.122;14.468;2023-01-30T07:50:01;97889.36289681381;;;1.8829633020523389;74.4665445944915
71642;BME280;60657;50.122;14.468;2023-01-30T07:53:06;97886.45739582874;;;2.080567635614557;74.05073624780651
71642;BME280;60657;50.122;14.468;2023-01-30T07:56:12;97871.06317183391;;;2.5932707713435548;72.66979476615549
71642;BME280;60657;50.122;14.468;2023-01-30T07:59:17;97872.17325558534;;;2.660028992141605;72.10330357824064
71642;BME280;60657;50.122;14.468;2023-01-30T08:02:20;97872.5657164907;;;2.4757763027389927;72.85099565117876
71642;BME280;60657;50.122;14.468;2023-01-30T08:05:25;97866.65671650985;;;2.4143587396047934;73.08560311284047
71642;BME280;60657;50.122;14.468;2023-01-30T08:08:29;97868.18836848867;;;2.278171969176775;73.34119172961013
71642;BME280;60657;50.122;14.468;2023-01-30T08:11:33;97857.36005251619;;;2.32356755931945;73.76653696498055
71642;BME280;60657;50.122;14.468;2023-01-30T08:14:37;97855.56789361437;;;2.184710460059513;73.95155260547799
71642;BME280;60657;50.122;14.468;2023-01-30T08:17:41;97863.67356080111;;;2.2114137483787317;74.22240024414435
71642;BME280;60657;50.122;14.468;2023-01-30T08:20:45;97873.70670443651;;;2.344930189974825;74.00114442664226
71642;BME280;60657;50.122;14.468;2023-01-30T08:23:49;97866.1317496406;;;2.2461280231937124;74.97199969481956
71642;BME280;60657;50.122;14.468;2023-01-30T08:26:54;97859.55435790388;;;2.222095063706419;75.1589227130541
71642;BME280;60657;50.122;14.468;2023-01-30T08:29:58;97867.79286257408;;;2.1953917753872005;75.06736858167392
71642;BME280;60657;50.122;14.468;2023-01-30T08:33:02;97871.11513725681;;;2.2007324330510443;75.11505302510109
71642;BME280;60657;50.122;14.468;2023-01-30T08:36:07;97863.23812247504;;;2.403677424277106;74.66300450141146
71642;BME280;60657;50.122;14.468;2023-01-30T08:39:11;97860.81158834469;;;2.3983367666132622;74.5085069047074
71642;BME280;60657;50.122;14.468;2023-01-30T08:42:16;97846.05808435295;;;2.4063477531090243;74.48180361638819
71642;BME280;60657;50.122;14.468;2023-01-30T08:45:20;97851.80623707904;;;2.433051041428243;74.41886015106432
71642;BME280;60657;50.122;14.468;2023-01-30T08:48:24;97838.71308574153;;;2.4357213702601683;74.56000610360876
71642;BME280;60657;50.122;14.468;2023-01-30T08:51:29;97831.43036362031;;;2.513160906385899;74.59243152513923
71642;BME280;60657;50.122;14.468;2023-01-30T08:54:34;97826.51210417252;;;2.4063477531090243;75.07499809262227
71642;BME280;60657;50.122;14.468;2023-01-30T08:57:38;97840.43669753915;;;2.4437323567559304;75.09407186999313
71642;BME280;60657;50.122;14.468;2023-01-30T09:00:47;97821.65574758401;;;2.5265125505455117;75.30388342107271
71642;BME280;60657;50.122;14.468;2023-01-30T09:03:56;97818.58018446383;;;2.5398641947051175;75.21995880064088
71642;BME280;60657;50.122;14.468;2023-01-30T09:07:00;97827.55815029312;;;2.5265125505455117;75.1875333791104
71642;BME280;60657;50.122;14.468;2023-01-30T09:10:05;97820.27028485057;;;2.625314717326617;74.98344396124209
71642;BME280;60657;50.122;14.468;2023-01-30T09:13:09;97825.28014104534;;;2.6707103074692924;74.9662775616083
71642;BME280;60657;50.122;14.468;2023-01-30T09:16:13;97819.70834062684;;;2.676050965133136;74.7469291218433
71642;BME280;60657;50.122;14.468;2023-01-30T09:19:17;97819.678890977;;;2.7241168841077297;74.61532005798428
71642;BME280;60657;50.122;14.468;2023-01-30T09:22:23;97834.28972278119;;;2.6493476768139175;74.85564965285725
71642;BME280;60657;50.122;14.468;2023-01-30T09:25:29;97824.68768922944;;;2.7588311589227104;74.302510109102
71642;BME280;60657;50.122;14.468;2023-01-30T09:28:33;97824.83346284887;;;2.895017929350729;74.14991989013504
71642;BME280;60657;50.122;14.468;2023-01-30T09:31:38;97820.14020591964;;;2.9217212176699476;73.64637216754406
71642;BME280;60657;50.122;14.468;2023-01-30T09:34:42;97833.24711694336;;;2.9804684519722286;73.6540016784924
71642;BME280;60657;50.122;14.468;2023-01-30T09:37:46;97808.10940705871;;;3.1193255512321656;73.15999084458686
71642;BME280;60657;50.122;14.468;2023-01-30T09:40:57;97824.75540506927;;;3.2742046234836337;72.88532845044632
71642;BME280;60657;50.122;14.468;2023-01-30T09:44:29;97814.69201035894;;;3.1326771953917785;73.0074006256199
71642;BME280;60657;50.122;14.468;2023-01-30T09:47:59;97808.27026741634;;;3.223468375677122;72.92729076066225
71642;BME280;60657;50.122;14.468;2023-01-30T09:51:33;97803.34621746583;;;3.2421606775005714;72.74418249790189
71642;BME280;60657;50.122;14.468;2023-01-30T09:54:48;97813.14080216612;;;3.1860837720302158;72.93873502708476
71642;BME280;60657;50.122;14.468;2023-01-30T09:57:59;97808.10940705871;;;3.084611276417185;73.63683527885863
71642;BME280;60657;50.122;14.468;2023-01-30T10:01:04;97815.4944476772;;;3.1326771953917785;73.82185091935607
71642;BME280;60657;50.122;14.468;2023-01-30T10:04:22;97809.65974640274;;;3.0178530556191348;74.50278477149615
71642;BME280;60657;50.122;14.468;2023-01-30T10:07:55;97803.74214772589;;;2.9297322041657097;75.36301213092241
71642;BME280;60657;50.122;14.468;2023-01-30T10:11:14;97798.62443156519;;;2.878995956359198;75.91042954146639
71642;BME280;60657;50.122;14.468;2023-01-30T10:14:37;97813.47398308288;;;2.8923476005188036;76.32623788815137
71642;BME280;60657;50.122;14.468;2023-01-30T10:17:57;97795.39028800483;;;2.8843366140230415;76.67719539177538
71642;BME280;60657;50.122;14.468;2023-01-30T10:21:26;97786.54173820784;;;2.9804684519722286;76.59517814908064
71642;BME280;60657;50.122;14.468;2023-01-30T10:24:45;97791.51865041755;;;2.991149767299916;76.31479362172885
71642;BME280;60657;50.122;14.468;2023-01-30T10:28:03;97781.5649713436;;;2.9804684519722286;76.2632944228275
71642;BME280;60657;50.122;14.468;2023-01-30T10:31:15;97770.35521202948;;;3.10597390707256;75.7177843900206
71642;BME280;60657;50.122;14.468;2023-01-30T10:34:27;97777.0156023359;;;3.247501335164415;75.2314030670634
71642;BME280;60657;50.122;14.468;2023-01-30T10:37:37;97779.80980334322;;;3.423743038071258;74.76409552147707
71642;BME280;60657;50.122;14.468;2023-01-30T10:40:51;97774.10510360067;;;3.4504463263904768;74.2872510872053
71642;BME280;60657;50.122;14.468;2023-01-30T10:44:07;97773.32531668046;;;3.3970397497520395;74.42458228427557
71642;BME280;60657;50.122;14.468;2023-01-30T10:47:20;97757.69528224326;;;3.3169298847943836;74.49134050507362
71642;BME280;60657;50.122;14.468;2023-01-30T10:50:41;97743.6756805343;;;3.298237582970934;74.71259632257572
71642;BME280;60657;50.122;14.468;2023-01-30T10:53:55;97752.03716952696;;;3.458457312886246;74.65537499046312
71642;BME280;60657;50.122;14.468;2023-01-30T10:57:12;97765.96132525532;;;3.445105668726633;74.90142671854734
71642;BME280;60657;50.122;14.468;2023-01-30T11:00:29;97753.74265552712;;;3.479819943541621;74.75074387731746
71642;BME280;60657;50.122;14.468;2023-01-30T11:03:44;97741.47402416893;;;3.5599298084992768;74.76981765468834
71642;BME280;60657;50.122;14.468;2023-01-30T11:06:53;97734.10755255938;;;3.570611123826964;74.49897001602197
71642;BME280;60657;50.122;14.468;2023-01-30T11:10:04;97734.10755255938;;;3.567940794995039;74.36354619668879
71642;BME280;60657;50.122;14.468;2023-01-30T11:13:19;97725.03763342656;;;3.5492484931715893;74.40360112916763